sensor_id;sensor_type;location;lat;lon;timestamp;P1;durP1;ratioP1;P2;durP2;ratioP2
69434;SDS011;56625;54.322;18.582;2023-02-28T00:01:26;59.80;;;21.20;;
69434;SDS011;56625;54.322;18.582;2023-02-28T00:03:54;43.20;;;15.40;;
69434;SDS011;56625;54.322;18.582;2023-02-28T00:06:20;36.10;;;12.20;;
69434;SDS011;56625;54.322;18.582;2023-02-28T00:08:47;25.30;;;8.10;;
69434;SDS011;56625;54.322;18.582;2023-02-28T00:11:15;29.70;;;9.60;;
69434;SDS011;56625;54.322;18.582;2023-02-28T00:13:45;34.00;;;13.10;;
69434;SDS011;56625;54.322;18.582;2023-02-28T00:16:18;25.50;;;9.10;;
69434;SDS011;56625;54.322;18.582;2023-02-28T00:18:47;47.70;;;16.90;;
69434;SDS011;56625;54.322;18.582;2023-02-28T00:21:15;34.30;;;11.10;;
69434;SDS011;56625;54.322;18.582;2023-02-28T00:23:43;38.60;;;14.20;;
69434;SDS011;56625;54.322;18.582;2023-02-28T00:26:10;35.90;;;12.30;;
69434;SDS011;56625;54.322;18.582;2023-02-28T00:28:36;44.60;;;15.40;;
69434;SDS011;56625;54.322;18.582;2023-02-28T00:31:03;39.80;;;14.30;;
69434;SDS011;56625;54.322;18.582;2023-02-28T00:33:30;46.10;;;16.30;;
69434;SDS011;56625;54.322;18.582;2023-02-28T00:36:05;42.60;;;14.80;;
69434;SDS011;56625;54.322;18.582;2023-02-28T00:38:34;39.80;;;12.90;;
69434;SDS011;56625;54.322;18.582;2023-02-28T00:41:01;36.20;;;12.90;;
69434;SDS011;56625;54.322;18.582;2023-02-28T00:43:34;27.10;;;9.90;;
69434;SDS011;56625;54.322;18.582;2023-02-28T00:46:03;36.40;;;11.70;;
69434;SDS011;56625;54.322;18.582;2023-02-28T00:48:31;31.00;;;10.10;;
69434;SDS011;56625;54.322;18.582;2023-02-28T00:50:58;40.50;;;13.80;;
69434;SDS011;56625;54.322;18.582;2023-02-28T00:53:25;41.30;;;15.20;;
69434;SDS011;56625;54.322;18.582;2023-02-28T00:55:51;44.30;;;15.70;;
69434;SDS011;56625;54.322;18.582;2023-02-28T00:58:18;42.90;;;15.10;;
69434;SDS011;56625;54.322;18.582;2023-02-28T01:00:45;45.30;;;15.30;;
69434;SDS011;56625;54.322;18.582;2023-02-28T01:03:17;40.10;;;13.20;;
69434;SDS011;56625;54.322;18.582;2023-02-28T01:05:45;40.80;;;12.80;;
69434;SDS011;56625;54.322;18.582;2023-02-28T01:08:12;27.70;;;8.10;;
69434;SDS011;56625;54.322;18.582;2023-02-28T01:10:40;36.00;;;11.50;;
69434;SDS011;56625;54.322;18.582;2023-02-28T01:13:07;32.50;;;10.50;;
69434;SDS011;56625;54.322;18.582;2023-02-28T01:15:34;21.50;;;6.80;;
69434;SDS011;56625;54.322;18.582;2023-02-28T01:18:00;37.20;;;12.40;;
69434;SDS011;56625;54.322;18.582;2023-02-28T01:20:27;44.20;;;14.90;;
69434;SDS011;56625;54.322;18.582;2023-02-28T01:22:54;42.20;;;15.00;;
69434;SDS011;56625;54.322;18.582;2023-02-28T01:25:20;50.00;;;16.10;;
69434;SDS011;56625;54.322;18.582;2023-02-28T01:27:47;39.60;;;14.80;;
69434;SDS011;56625;54.322;18.582;2023-02-28T01:30:13;23.30;;;8.10;;
69434;SDS011;56625;54.322;18.582;2023-02-28T01:32:40;41.40;;;12.50;;
69434;SDS011;56625;54.322;18.582;2023-02-28T01:35:07;36.20;;;12.60;;
69434;SDS011;56625;54.322;18.582;2023-02-28T01:37:33;28.70;;;9.80;;
69434;SDS011;56625;54.322;18.582;2023-02-28T01:40:00;31.30;;;12.80;;
69434;SDS011;56625;54.322;18.582;2023-02-28T01:42:26;38.50;;;13.90;;
69434;SDS011;56625;54.322;18.582;2023-02-28T01:45:32;36.90;;;11.50;;
69434;SDS011;56625;54.322;18.582;2023-02-28T01:48:02;40.00;;;14.00;;
69434;SDS011;56625;54.322;18.582;2023-02-28T01:50:36;26.60;;;10.30;;
69434;SDS011;56625;54.322;18.582;2023-02-28T01:53:12;36.60;;;12.90;;
69434;SDS011;56625;54.322;18.582;2023-02-28T01:55:47;42.50;;;13.70;;
69434;SDS011;56625;54.322;18.582;2023-02-28T01:58:16;41.20;;;15.10;;
69434;SDS011;56625;54.322;18.582;2023-02-28T02:00:42;48.60;;;17.00;;
69434;SDS011;56625;54.322;18.582;2023-02-28T02:03:12;49.50;;;17.00;;
69434;SDS011;56625;54.322;18.582;2023-02-28T02:05:43;42.90;;;15.50;;
69434;SDS011;56625;54.322;18.582;2023-02-28T02:08:17;40.20;;;14.00;;
69434;SDS011;56625;54.322;18.582;2023-02-28T02:10:56;43.50;;;14.20;;
69434;SDS011;56625;54.322;18.582;2023-02-28T02:16:49;29.00;;;10.90;;
69434;SDS011;56625;54.322;18.582;2023-02-28T02:22:49;36.20;;;12.00;;
69434;SDS011;56625;54.322;18.582;2023-02-28T02:28:36;35.70;;;13.10;;
69434;SDS011;56625;54.322;18.582;2023-02-28T02:37:35;24.30;;;8.30;;
69434;SDS011;56625;54.322;18.582;2023-02-28T02:40:33;33.30;;;11.20;;
69434;SDS011;56625;54.322;18.582;2023-02-28T02:43:13;21.70;;;6.50;;
69434;SDS011;56625;54.322;18.582;2023-02-28T02:45:49;26.00;;;9.90;;
69434;SDS011;56625;54.322;18.582;2023-02-28T02:48:25;27.00;;;9.40;;
69434;SDS011;56625;54.322;18.582;2023-02-28T02:50:58;30.70;;;9.90;;
69434;SDS011;56625;54.322;18.582;2023-02-28T02:53:39;25.00;;;8.40;;
69434;SDS011;56625;54.322;18.582;2023-02-28T02:56:10;33.80;;;10.20;;
69434;SDS011;56625;54.322;18.582;2023-02-28T02:58:41;26.80;;;9.70;;
69434;SDS011;56625;54.322;18.582;2023-02-28T03:01:20;30.00;;;10.60;;
69434;SDS011;56625;54.322;18.582;2023-02-28T03:04:00;36.80;;;10.60;;
69434;SDS011;56625;54.322;18.582;2023-02-28T03:06:28;25.00;;;9.50;;
69434;SDS011;56625;54.322;18.582;2023-02-28T03:08:55;21.30;;;7.00;;
69434;SDS011;56625;54.322;18.582;2023-02-28T03:11:21;23.10;;;7.40;;
69434;SDS011;56625;54.322;18.582;2023-02-28T03:14:04;21.40;;;7.40;;
69434;SDS011;56625;54.322;18.582;2023-02-28T03:30:47;23.80;;;8.20;;
69434;SDS011;56625;54.322;18.582;2023-02-28T03:33:18;25.70;;;7.80;;
69434;SDS011;56625;54.322;18.582;2023-02-28T03:35:54;18.10;;;7.10;;
69434;SDS011;56625;54.322;18.582;2023-02-28T03:38:31;27.80;;;8.60;;
69434;SDS011;56625;54.322;18.582;2023-02-28T03:41:19;29.90;;;8.30;;
69434;SDS011;56625;54.322;18.582;2023-02-28T03:44:01;25.10;;;8.50;;
69434;SDS011;56625;54.322;18.582;2023-02-28T03:46:36;23.80;;;8.80;;
69434;SDS011;56625;54.322;18.582;2023-02-28T03:49:16;26.80;;;8.40;;
69434;SDS011;56625;54.322;18.582;2023-02-28T03:51:50;19.00;;;5.70;;
69434;SDS011;56625;54.322;18.582;2023-02-28T03:54:24;20.20;;;6.60;;
69434;SDS011;56625;54.322;18.582;2023-02-28T03:57:00;26.60;;;8.40;;
69434;SDS011;56625;54.322;18.582;2023-02-28T03:59:59;21.10;;;5.90;;
69434;SDS011;56625;54.322;18.582;2023-02-28T04:02:32;16.00;;;5.30;;
69434;SDS011;56625;54.322;18.582;2023-02-28T04:05:00;16.90;;;4.80;;
69434;SDS011;56625;54.322;18.582;2023-02-28T04:07:31;15.80;;;4.80;;
69434;SDS011;56625;54.322;18.582;2023-02-28T04:09:58;19.30;;;7.00;;
69434;SDS011;56625;54.322;18.582;2023-02-28T04:12:26;23.50;;;6.70;;
69434;SDS011;56625;54.322;18.582;2023-02-28T04:14:52;14.00;;;5.70;;
69434;SDS011;56625;54.322;18.582;2023-02-28T04:17:19;15.10;;;4.80;;
69434;SDS011;56625;54.322;18.582;2023-02-28T04:19:45;16.10;;;5.30;;
69434;SDS011;56625;54.322;18.582;2023-02-28T04:22:12;11.10;;;3.20;;
69434;SDS011;56625;54.322;18.582;2023-02-28T04:24:39;17.50;;;5.30;;
69434;SDS011;56625;54.322;18.582;2023-02-28T04:27:09;18.00;;;5.70;;
69434;SDS011;56625;54.322;18.582;2023-02-28T04:29:36;17.90;;;6.20;;
69434;SDS011;56625;54.322;18.582;2023-02-28T04:32:03;22.80;;;7.00;;
69434;SDS011;56625;54.322;18.582;2023-02-28T04:34:31;16.10;;;5.10;;
69434;SDS011;56625;54.322;18.582;2023-02-28T04:36:59;18.70;;;5.40;;
69434;SDS011;56625;54.322;18.582;2023-02-28T04:39:39;18.60;;;5.40;;
69434;SDS011;56625;54.322;18.582;2023-02-28T04:42:06;17.70;;;5.50;;
69434;SDS011;56625;54.322;18.582;2023-02-28T04:44:34;11.10;;;3.40;;
69434;SDS011;56625;54.322;18.582;2023-02-28T04:47:00;18.40;;;6.00;;
69434;SDS011;56625;54.322;18.582;2023-02-28T04:49:27;4.60;;;1.60;;
69434;SDS011;56625;54.322;18.582;2023-02-28T04:51:53;17.10;;;5.00;;
69434;SDS011;56625;54.322;18.582;2023-02-28T04:54:20;17.50;;;5.40;;
69434;SDS011;56625;54.322;18.582;2023-02-28T04:56:46;13.50;;;4.70;;
69434;SDS011;56625;54.322;18.582;2023-02-28T04:59:15;10.80;;;3.90;;
69434;SDS011;56625;54.322;18.582;2023-02-28T05:01:45;15.00;;;5.20;;
69434;SDS011;56625;54.322;18.582;2023-02-28T05:04:14;14.80;;;4.80;;
69434;SDS011;56625;54.322;18.582;2023-02-28T05:06:41;13.30;;;5.00;;
69434;SDS011;56625;54.322;18.582;2023-02-28T05:09:10;12.90;;;4.20;;
69434;SDS011;56625;54.322;18.582;2023-02-28T05:11:40;11.60;;;2.80;;
69434;SDS011;56625;54.322;18.582;2023-02-28T05:14:11;12.00;;;4.20;;
69434;SDS011;56625;54.322;18.582;2023-02-28T05:16:39;16.00;;;5.50;;
69434;SDS011;56625;54.322;18.582;2023-02-28T05:19:06;13.40;;;4.40;;
69434;SDS011;56625;54.322;18.582;2023-02-28T05:21:35;17.30;;;5.10;;
69434;SDS011;56625;54.322;18.582;2023-02-28T05:24:06;15.40;;;5.10;;
69434;SDS011;56625;54.322;18.582;2023-02-28T05:26:40;11.80;;;3.90;;
69434;SDS011;56625;54.322;18.582;2023-02-28T05:29:08;20.30;;;6.40;;
69434;SDS011;56625;54.322;18.582;2023-02-28T05:31:38;15.00;;;5.50;;
69434;SDS011;56625;54.322;18.582;2023-02-28T05:34:04;19.10;;;5.70;;
69434;SDS011;56625;54.322;18.582;2023-02-28T05:36:31;17.10;;;6.20;;
69434;SDS011;56625;54.322;18.582;2023-02-28T05:38:58;12.70;;;4.00;;
69434;SDS011;56625;54.322;18.582;2023-02-28T05:41:25;11.30;;;3.80;;
69434;SDS011;56625;54.322;18.582;2023-02-28T05:43:52;6.40;;;1.40;;
69434;SDS011;56625;54.322;18.582;2023-02-28T05:46:18;11.50;;;3.00;;
69434;SDS011;56625;54.322;18.582;2023-02-28T05:48:47;13.10;;;3.40;;
69434;SDS011;56625;54.322;18.582;2023-02-28T05:51:14;11.70;;;3.90;;
69434;SDS011;56625;54.322;18.582;2023-02-28T05:53:41;14.40;;;4.10;;
69434;SDS011;56625;54.322;18.582;2023-02-28T05:56:07;15.10;;;4.30;;
69434;SDS011;56625;54.322;18.582;2023-02-28T05:58:34;16.10;;;5.00;;
69434;SDS011;56625;54.322;18.582;2023-02-28T06:01:23;14.90;;;5.00;;
69434;SDS011;56625;54.322;18.582;2023-02-28T06:04:09;9.00;;;2.20;;
69434;SDS011;56625;54.322;18.582;2023-02-28T06:06:51;9.80;;;3.10;;
69434;SDS011;56625;54.322;18.582;2023-02-28T06:09:18;8.10;;;2.70;;
69434;SDS011;56625;54.322;18.582;2023-02-28T06:11:45;11.00;;;4.10;;
69434;SDS011;56625;54.322;18.582;2023-02-28T06:14:16;7.90;;;2.70;;
69434;SDS011;56625;54.322;18.582;2023-02-28T06:16:44;8.80;;;2.40;;
69434;SDS011;56625;54.322;18.582;2023-02-28T06:19:11;11.80;;;3.80;;
69434;SDS011;56625;54.322;18.582;2023-02-28T06:21:38;8.50;;;3.10;;
69434;SDS011;56625;54.322;18.582;2023-02-28T06:24:04;5.20;;;1.60;;
69434;SDS011;56625;54.322;18.582;2023-02-28T06:26:31;7.50;;;2.50;;
69434;SDS011;56625;54.322;18.582;2023-02-28T06:28:58;12.20;;;3.20;;
69434;SDS011;56625;54.322;18.582;2023-02-28T06:31:25;7.50;;;1.80;;
69434;SDS011;56625;54.322;18.582;2023-02-28T06:33:52;11.20;;;3.10;;
69434;SDS011;56625;54.322;18.582;2023-02-28T06:36:18;8.40;;;2.30;;
69434;SDS011;56625;54.322;18.582;2023-02-28T06:38:45;11.10;;;3.10;;
69434;SDS011;56625;54.322;18.582;2023-02-28T06:41:12;10.50;;;2.50;;
69434;SDS011;56625;54.322;18.582;2023-02-28T06:43:41;10.50;;;2.50;;
69434;SDS011;56625;54.322;18.582;2023-02-28T06:46:12;11.10;;;2.80;;
69434;SDS011;56625;54.322;18.582;2023-02-28T06:48:40;11.50;;;3.20;;
69434;SDS011;56625;54.322;18.582;2023-02-28T06:51:17;9.00;;;3.20;;
69434;SDS011;56625;54.322;18.582;2023-02-28T06:53:51;9.30;;;3.20;;
69434;SDS011;56625;54.322;18.582;2023-02-28T06:56:18;13.20;;;4.10;;
69434;SDS011;56625;54.322;18.582;2023-02-28T06:58:47;12.70;;;3.80;;
69434;SDS011;56625;54.322;18.582;2023-02-28T07:01:16;12.30;;;3.40;;
69434;SDS011;56625;54.322;18.582;2023-02-28T07:03:43;12.80;;;4.20;;
69434;SDS011;56625;54.322;18.582;2023-02-28T07:06:09;10.10;;;3.50;;
69434;SDS011;56625;54.322;18.582;2023-02-28T07:08:36;12.20;;;3.70;;
69434;SDS011;56625;54.322;18.582;2023-02-28T07:11:03;13.40;;;4.10;;
69434;SDS011;56625;54.322;18.582;2023-02-28T07:13:31;12.50;;;3.80;;
69434;SDS011;56625;54.322;18.582;2023-02-28T07:16:00;11.30;;;3.90;;
69434;SDS011;56625;54.322;18.582;2023-02-28T07:18:32;12.20;;;3.50;;
69434;SDS011;56625;54.322;18.582;2023-02-28T07:21:02;13.20;;;4.20;;
69434;SDS011;56625;54.322;18.582;2023-02-28T07:23:30;11.70;;;3.60;;
69434;SDS011;56625;54.322;18.582;2023-02-28T07:25:57;8.80;;;2.50;;
69434;SDS011;56625;54.322;18.582;2023-02-28T07:28:24;12.70;;;4.00;;
69434;SDS011;56625;54.322;18.582;2023-02-28T07:30:51;11.50;;;3.60;;
69434;SDS011;56625;54.322;18.582;2023-02-28T07:33:18;13.00;;;3.90;;
69434;SDS011;56625;54.322;18.582;2023-02-28T07:35:45;12.40;;;4.30;;
69434;SDS011;56625;54.322;18.582;2023-02-28T07:38:11;13.00;;;3.00;;
69434;SDS011;56625;54.322;18.582;2023-02-28T07:40:39;9.80;;;3.00;;
69434;SDS011;56625;54.322;18.582;2023-02-28T07:43:06;10.30;;;3.70;;
69434;SDS011;56625;54.322;18.582;2023-02-28T07:45:32;15.20;;;4.40;;
69434;SDS011;56625;54.322;18.582;2023-02-28T07:48:01;10.70;;;3.50;;
69434;SDS011;56625;54.322;18.582;2023-02-28T07:50:28;11.50;;;3.70;;
69434;SDS011;56625;54.322;18.582;2023-02-28T07:52:58;11.20;;;3.50;;
69434;SDS011;56625;54.322;18.582;2023-02-28T07:55:25;11.90;;;3.00;;
69434;SDS011;56625;54.322;18.582;2023-02-28T07:57:52;7.90;;;2.10;;
69434;SDS011;56625;54.322;18.582;2023-02-28T08:00:19;12.50;;;3.50;;
69434;SDS011;56625;54.322;18.582;2023-02-28T08:02:46;14.00;;;3.60;;
69434;SDS011;56625;54.322;18.582;2023-02-28T08:05:12;11.70;;;3.80;;
69434;SDS011;56625;54.322;18.582;2023-02-28T08:07:39;13.70;;;4.50;;
69434;SDS011;56625;54.322;18.582;2023-02-28T08:10:06;11.30;;;4.50;;
69434;SDS011;56625;54.322;18.582;2023-02-28T08:12:34;14.50;;;4.60;;
69434;SDS011;56625;54.322;18.582;2023-02-28T08:15:01;14.80;;;4.30;;
69434;SDS011;56625;54.322;18.582;2023-02-28T08:17:28;12.20;;;3.40;;
69434;SDS011;56625;54.322;18.582;2023-02-28T08:19:54;11.30;;;3.60;;
69434;SDS011;56625;54.322;18.582;2023-02-28T08:22:21;9.50;;;3.30;;
69434;SDS011;56625;54.322;18.582;2023-02-28T08:24:48;10.90;;;4.10;;
69434;SDS011;56625;54.322;18.582;2023-02-28T08:27:15;6.70;;;2.00;;
69434;SDS011;56625;54.322;18.582;2023-02-28T08:29:41;13.90;;;4.50;;
69434;SDS011;56625;54.322;18.582;2023-02-28T08:32:08;11.60;;;3.80;;
69434;SDS011;56625;54.322;18.582;2023-02-28T08:34:46;15.10;;;4.60;;
69434;SDS011;56625;54.322;18.582;2023-02-28T08:37:14;13.70;;;4.60;;
69434;SDS011;56625;54.322;18.582;2023-02-28T08:39:40;11.80;;;3.30;;
69434;SDS011;56625;54.322;18.582;2023-02-28T08:42:09;12.70;;;3.60;;
69434;SDS011;56625;54.322;18.582;2023-02-28T08:44:36;14.90;;;3.70;;
69434;SDS011;56625;54.322;18.582;2023-02-28T08:47:02;14.80;;;3.90;;
69434;SDS011;56625;54.322;18.582;2023-02-28T08:49:29;12.30;;;4.10;;
69434;SDS011;56625;54.322;18.582;2023-02-28T08:51:55;13.00;;;3.80;;
69434;SDS011;56625;54.322;18.582;2023-02-28T08:54:23;13.30;;;3.60;;
69434;SDS011;56625;54.322;18.582;2023-02-28T08:56:50;6.80;;;1.90;;
69434;SDS011;56625;54.322;18.582;2023-02-28T08:59:17;7.80;;;2.20;;
69434;SDS011;56625;54.322;18.582;2023-02-28T09:01:43;9.30;;;2.50;;
69434;SDS011;56625;54.322;18.582;2023-02-28T09:04:10;12.70;;;3.10;;
69434;SDS011;56625;54.322;18.582;2023-02-28T09:06:39;10.80;;;2.90;;
69434;SDS011;56625;54.322;18.582;2023-02-28T09:09:05;7.90;;;2.30;;
69434;SDS011;56625;54.322;18.582;2023-02-28T09:11:34;12.10;;;3.30;;
69434;SDS011;56625;54.322;18.582;2023-02-28T09:14:02;12.50;;;3.80;;
69434;SDS011;56625;54.322;18.582;2023-02-28T09:16:31;8.40;;;2.20;;
69434;SDS011;56625;54.322;18.582;2023-02-28T09:19:00;12.30;;;3.20;;
69434;SDS011;56625;54.322;18.582;2023-02-28T09:21:27;9.50;;;2.60;;
69434;SDS011;56625;54.322;18.582;2023-02-28T09:23:54;10.40;;;2.90;;
69434;SDS011;56625;54.322;18.582;2023-02-28T09:26:27;8.70;;;2.70;;
69434;SDS011;56625;54.322;18.582;2023-02-28T09:29:04;8.00;;;2.50;;
69434;SDS011;56625;54.322;18.582;2023-02-28T09:31:31;8.20;;;2.10;;
69434;SDS011;56625;54.322;18.582;2023-02-28T09:33:58;11.10;;;2.80;;
69434;SDS011;56625;54.322;18.582;2023-02-28T09:36:26;9.70;;;2.70;;
69434;SDS011;56625;54.322;18.582;2023-02-28T09:39:10;11.30;;;3.50;;
69434;SDS011;56625;54.322;18.582;2023-02-28T09:41:41;11.50;;;3.70;;
69434;SDS011;56625;54.322;18.582;2023-02-28T09:44:33;9.50;;;3.00;;
69434;SDS011;56625;54.322;18.582;2023-02-28T09:47:21;11.70;;;4.00;;
69434;SDS011;56625;54.322;18.582;2023-02-28T09:49:57;11.00;;;4.20;;
69434;SDS011;56625;54.322;18.582;2023-02-28T09:52:31;11.70;;;3.80;;
69434;SDS011;56625;54.322;18.582;2023-02-28T09:55:19;12.30;;;3.80;;
69434;SDS011;56625;54.322;18.582;2023-02-28T09:57:50;11.00;;;3.70;;
69434;SDS011;56625;54.322;18.582;2023-02-28T10:00:21;9.60;;;2.30;;
69434;SDS011;56625;54.322;18.582;2023-02-28T10:08:28;10.70;;;3.20;;
69434;SDS011;56625;54.322;18.582;2023-02-28T10:11:01;10.10;;;2.70;;
69434;SDS011;56625;54.322;18.582;2023-02-28T10:17:04;10.40;;;2.60;;
69434;SDS011;56625;54.322;18.582;2023-02-28T10:22:29;7.50;;;2.20;;
69434;SDS011;56625;54.322;18.582;2023-02-28T10:25:00;5.50;;;1.00;;
69434;SDS011;56625;54.322;18.582;2023-02-28T10:27:32;8.50;;;1.80;;
69434;SDS011;56625;54.322;18.582;2023-02-28T10:30:00;5.50;;;1.40;;
69434;SDS011;56625;54.322;18.582;2023-02-28T10:32:33;7.90;;;1.80;;
69434;SDS011;56625;54.322;18.582;2023-02-28T10:35:21;7.20;;;1.60;;
69434;SDS011;56625;54.322;18.582;2023-02-28T10:37:54;7.80;;;1.70;;
69434;SDS011;56625;54.322;18.582;2023-02-28T10:40:32;7.90;;;2.00;;
69434;SDS011;56625;54.322;18.582;2023-02-28T10:51:56;7.80;;;1.80;;
69434;SDS011;56625;54.322;18.582;2023-02-28T10:54:31;6.90;;;2.20;;
69434;SDS011;56625;54.322;18.582;2023-02-28T10:57:20;8.30;;;2.00;;
69434;SDS011;56625;54.322;18.582;2023-02-28T11:00:17;9.10;;;2.50;;
69434;SDS011;56625;54.322;18.582;2023-02-28T11:02:40;11.80;;;3.10;;
69434;SDS011;56625;54.322;18.582;2023-02-28T11:05:33;10.90;;;3.50;;
69434;SDS011;56625;54.322;18.582;2023-02-28T11:08:06;7.70;;;2.40;;
69434;SDS011;56625;54.322;18.582;2023-02-28T11:10:38;9.30;;;2.50;;
69434;SDS011;56625;54.322;18.582;2023-02-28T11:13:06;11.60;;;3.90;;
69434;SDS011;56625;54.322;18.582;2023-02-28T11:15:33;12.60;;;4.80;;
69434;SDS011;56625;54.322;18.582;2023-02-28T11:18:30;11.30;;;3.50;;
69434;SDS011;56625;54.322;18.582;2023-02-28T11:20:59;12.00;;;4.40;;
69434;SDS011;56625;54.322;18.582;2023-02-28T11:23:30;9.20;;;3.40;;
69434;SDS011;56625;54.322;18.582;2023-02-28T11:26:03;7.60;;;2.20;;
69434;SDS011;56625;54.322;18.582;2023-02-28T11:28:37;12.30;;;3.40;;
69434;SDS011;56625;54.322;18.582;2023-02-28T11:36:26;11.50;;;2.60;;
69434;SDS011;56625;54.322;18.582;2023-02-28T11:39:09;10.20;;;2.70;;
69434;SDS011;56625;54.322;18.582;2023-02-28T11:45:08;6.20;;;1.60;;
69434;SDS011;56625;54.322;18.582;2023-02-28T11:48:02;4.70;;;1.10;;
69434;SDS011;56625;54.322;18.582;2023-02-28T11:50:40;5.50;;;1.30;;
69434;SDS011;56625;54.322;18.582;2023-02-28T11:53:48;7.30;;;1.90;;
69434;SDS011;56625;54.322;18.582;2023-02-28T11:56:41;7.20;;;1.80;;
69434;SDS011;56625;54.322;18.582;2023-02-28T12:05:29;7.20;;;1.40;;
69434;SDS011;56625;54.322;18.582;2023-02-28T12:11:35;6.90;;;1.30;;
69434;SDS011;56625;54.322;18.582;2023-02-28T12:14:44;11.20;;;2.40;;
69434;SDS011;56625;54.322;18.582;2023-02-28T12:20:30;6.20;;;1.60;;
69434;SDS011;56625;54.322;18.582;2023-02-28T12:26:03;7.40;;;1.50;;
69434;SDS011;56625;54.322;18.582;2023-02-28T12:28:51;6.90;;;1.20;;
69434;SDS011;56625;54.322;18.582;2023-02-28T12:31:46;5.30;;;1.60;;
69434;SDS011;56625;54.322;18.582;2023-02-28T12:34:38;7.70;;;1.70;;
69434;SDS011;56625;54.322;18.582;2023-02-28T12:37:19;5.90;;;1.40;;
69434;SDS011;56625;54.322;18.582;2023-02-28T12:39:55;6.90;;;1.40;;
69434;SDS011;56625;54.322;18.582;2023-02-28T12:42:36;7.80;;;1.80;;
69434;SDS011;56625;54.322;18.582;2023-02-28T12:45:27;7.20;;;1.80;;
69434;SDS011;56625;54.322;18.582;2023-02-28T12:48:24;5.40;;;1.60;;
69434;SDS011;56625;54.322;18.582;2023-02-28T12:50:56;7.40;;;1.60;;
69434;SDS011;56625;54.322;18.582;2023-02-28T12:53:54;4.20;;;0.70;;
69434;SDS011;56625;54.322;18.582;2023-02-28T13:09:22;7.40;;;1.30;;
69434;SDS011;56625;54.322;18.582;2023-02-28T13:17:10;7.40;;;1.70;;
69434;SDS011;56625;54.322;18.582;2023-02-28T13:27:50;7.00;;;1.50;;
69434;SDS011;56625;54.322;18.582;2023-02-28T13:38:47;9.50;;;1.80;;
69434;SDS011;56625;54.322;18.582;2023-02-28T13:44:13;8.20;;;1.40;;
69434;SDS011;56625;54.322;18.582;2023-02-28T13:47:18;6.50;;;1.20;;
69434;SDS011;56625;54.322;18.582;2023-02-28T13:49:47;7.70;;;1.40;;
69434;SDS011;56625;54.322;18.582;2023-02-28T13:52:18;5.90;;;1.30;;
69434;SDS011;56625;54.322;18.582;2023-02-28T13:55:22;4.70;;;1.20;;
69434;SDS011;56625;54.322;18.582;2023-02-28T14:04:08;6.20;;;1.10;;
69434;SDS011;56625;54.322;18.582;2023-02-28T14:06:39;4.70;;;1.00;;
69434;SDS011;56625;54.322;18.582;2023-02-28T14:09:35;6.30;;;1.30;;
69434;SDS011;56625;54.322;18.582;2023-02-28T14:15:33;5.10;;;1.00;;
69434;SDS011;56625;54.322;18.582;2023-02-28T14:18:27;7.60;;;1.20;;
69434;SDS011;56625;54.322;18.582;2023-02-28T14:27:02;6.60;;;1.40;;
69434;SDS011;56625;54.322;18.582;2023-02-28T14:38:14;6.30;;;1.60;;
69434;SDS011;56625;54.322;18.582;2023-02-28T14:40:51;7.10;;;1.60;;
69434;SDS011;56625;54.322;18.582;2023-02-28T14:43:25;6.70;;;1.50;;
69434;SDS011;56625;54.322;18.582;2023-02-28T14:45:56;6.50;;;1.40;;
69434;SDS011;56625;54.322;18.582;2023-02-28T14:48:26;7.20;;;1.70;;
69434;SDS011;56625;54.322;18.582;2023-02-28T14:50:57;7.00;;;1.70;;
69434;SDS011;56625;54.322;18.582;2023-02-28T14:53:29;6.20;;;1.90;;
69434;SDS011;56625;54.322;18.582;2023-02-28T14:56:01;6.50;;;1.50;;
69434;SDS011;56625;54.322;18.582;2023-02-28T14:58:31;7.00;;;1.50;;
69434;SDS011;56625;54.322;18.582;2023-02-28T15:01:03;7.20;;;1.90;;
69434;SDS011;56625;54.322;18.582;2023-02-28T15:03:33;9.60;;;2.30;;
69434;SDS011;56625;54.322;18.582;2023-02-28T15:06:04;9.50;;;2.00;;
69434;SDS011;56625;54.322;18.582;2023-02-28T15:08:45;7.30;;;2.00;;
69434;SDS011;56625;54.322;18.582;2023-02-28T15:11:17;8.50;;;2.10;;
69434;SDS011;56625;54.322;18.582;2023-02-28T15:13:48;8.70;;;2.20;;
69434;SDS011;56625;54.322;18.582;2023-02-28T15:16:20;9.20;;;2.60;;
69434;SDS011;56625;54.322;18.582;2023-02-28T15:18:57;8.90;;;2.50;;
69434;SDS011;56625;54.322;18.582;2023-02-28T15:21:37;9.70;;;1.90;;
69434;SDS011;56625;54.322;18.582;2023-02-28T15:24:15;9.60;;;2.90;;
69434;SDS011;56625;54.322;18.582;2023-02-28T15:27:00;7.80;;;2.30;;
69434;SDS011;56625;54.322;18.582;2023-02-28T15:29:41;9.80;;;2.40;;
69434;SDS011;56625;54.322;18.582;2023-02-28T15:32:30;9.80;;;2.70;;
69434;SDS011;56625;54.322;18.582;2023-02-28T15:35:00;9.60;;;2.70;;
69434;SDS011;56625;54.322;18.582;2023-02-28T15:38:00;8.80;;;2.50;;
69434;SDS011;56625;54.322;18.582;2023-02-28T15:40:43;7.90;;;2.50;;
69434;SDS011;56625;54.322;18.582;2023-02-28T15:46:04;9.60;;;2.60;;
69434;SDS011;56625;54.322;18.582;2023-02-28T15:48:42;11.30;;;2.90;;
69434;SDS011;56625;54.322;18.582;2023-02-28T15:51:18;17.00;;;3.40;;
69434;SDS011;56625;54.322;18.582;2023-02-28T15:53:58;16.30;;;3.10;;
69434;SDS011;56625;54.322;18.582;2023-02-28T15:56:33;13.80;;;3.10;;
69434;SDS011;56625;54.322;18.582;2023-02-28T15:59:06;11.20;;;3.40;;
69434;SDS011;56625;54.322;18.582;2023-02-28T16:01:45;13.50;;;4.00;;
69434;SDS011;56625;54.322;18.582;2023-02-28T16:04:18;10.80;;;3.50;;
69434;SDS011;56625;54.322;18.582;2023-02-28T16:07:00;10.20;;;3.30;;
69434;SDS011;56625;54.322;18.582;2023-02-28T16:09:28;10.80;;;3.50;;
69434;SDS011;56625;54.322;18.582;2023-02-28T16:12:01;13.10;;;4.00;;
69434;SDS011;56625;54.322;18.582;2023-02-28T16:14:29;14.60;;;4.10;;
69434;SDS011;56625;54.322;18.582;2023-02-28T16:17:03;14.90;;;4.80;;
69434;SDS011;56625;54.322;18.582;2023-02-28T16:19:31;12.30;;;4.10;;
69434;SDS011;56625;54.322;18.582;2023-02-28T16:22:01;15.40;;;4.30;;
69434;SDS011;56625;54.322;18.582;2023-02-28T16:24:28;14.70;;;4.10;;
69434;SDS011;56625;54.322;18.582;2023-02-28T16:26:55;13.50;;;4.10;;
69434;SDS011;56625;54.322;18.582;2023-02-28T16:29:24;14.80;;;4.20;;
69434;SDS011;56625;54.322;18.582;2023-02-28T16:31:57;15.90;;;4.30;;
69434;SDS011;56625;54.322;18.582;2023-02-28T16:34:24;11.90;;;3.90;;
69434;SDS011;56625;54.322;18.582;2023-02-28T16:36:52;13.10;;;3.90;;
69434;SDS011;56625;54.322;18.582;2023-02-28T16:39:19;14.00;;;4.20;;
69434;SDS011;56625;54.322;18.582;2023-02-28T16:41:51;14.20;;;4.50;;
69434;SDS011;56625;54.322;18.582;2023-02-28T16:47:01;14.00;;;4.50;;
69434;SDS011;56625;54.322;18.582;2023-02-28T16:49:29;12.50;;;4.70;;
69434;SDS011;56625;54.322;18.582;2023-02-28T16:51:56;12.60;;;4.50;;
69434;SDS011;56625;54.322;18.582;2023-02-28T16:54:23;13.10;;;4.30;;
69434;SDS011;56625;54.322;18.582;2023-02-28T16:56:50;15.70;;;4.90;;
69434;SDS011;56625;54.322;18.582;2023-02-28T16:59:21;16.80;;;4.80;;
69434;SDS011;56625;54.322;18.582;2023-02-28T17:01:50;16.50;;;5.60;;
69434;SDS011;56625;54.322;18.582;2023-02-28T17:04:18;19.40;;;5.00;;
69434;SDS011;56625;54.322;18.582;2023-02-28T17:06:46;15.20;;;5.20;;
69434;SDS011;56625;54.322;18.582;2023-02-28T17:09:21;14.10;;;5.10;;
69434;SDS011;56625;54.322;18.582;2023-02-28T17:11:56;15.10;;;5.20;;
69434;SDS011;56625;54.322;18.582;2023-02-28T17:14:23;16.70;;;5.50;;
69434;SDS011;56625;54.322;18.582;2023-02-28T17:16:49;17.60;;;5.20;;